Cordele, GA

1:25 AM EDT on July 26, 2014 (GMT -0400)
Crisp EMA (KGACORDE3) Elev 315 ft | 31.92 °N, 83.78 °W | Change Station

Current weather conditions updated 2 minutes ago

Clear
Clear
76.9 °F
Feels Like 78 °F
N
2.0
Wind Variable Wind from SE
Gusts 5.0 mph

Today is forecast to be Much Warmer than yesterday.

Today
High -- | Low -- °F
--% Chance of Precip.
Yesterday
High -- | Low -- °F
Precip. -- in
6:46 AM 8:36 PM
Waning Crescent, 0% visible
Pressure 30.04 in
Visibility 10.0 miles
Clouds Clear
Heat Index 78 °F
Dew Point 75 °F
Humidity 92%
Rainfall 0.00 in
Snow Depth Not available.
UV 0 out of 12
Pollen 4.50 out of 12
Air Quality Not available.
Flu Activity Not available.
METAR KCKF 260515Z AUTO 19004KT 10SM CLR 27/24 A3004 RMK AO2 T02710235

More Conditions Fewer Conditions

Pressure 30.04 in
Visibility 10.0 miles
Clouds Clear
Heat Index 78 °F
Dew Point 75 °F
Humidity 92%
Rainfall 0.00 in
Snow Depth Not available.
UV 0 out of 12
Pollen 4.50 out of 12
Air Quality Not available.
Flu Activity Not available.
METAR KCKF 260515Z AUTO 19004KT 10SM CLR 27/24 A3004 RMK AO2 T02710235

More Conditions Fewer Conditions

10-Day Weather Forecast

Almanac

Astronomy

Jul. 26, 2014 Rise Set
Actual Time 6:46 AM EDT 8:36 PM EDT
Civil Twilight 6:19 AM EDT 9:03 PM EDT
Nautical Twilight 5:47 AM EDT 9:35 PM EDT
Astronomical Twilight 5:12 AM EDT 10:10 PM EDT
Moon 6:34 AM EDT 8:15 PM EDT
Length of Visible Light 14h 43m
Length of Day
13h 49m
Tomorrow will be 1m 18s shorter.
Waning Crescent, 0% of the Moon is Illuminated
Today
Waning Crescent
Jul 26
New
Aug 3
First Quarter
Aug 10
Full
Aug 17
Last Quarter

Today's Extremes

State Highs State Lows

Community

WunderPhotos

Upload Photos

1,737,521 photos uploaded!

Nearby

Snow Depth

Station Depth Elevation
No new snow has been reported.

Earthquake Activity

City Distance Mag. Time & Date
No recent earthquake activity has been reported nearby.
Minimum magnitude displayed is 2.5.

Coastal Water Temperatures

Place Temperature
No Stations Reporting

Nearby Weather Stations

Station Location Temp. Heat Index Dew Point Humidity Wind Precip. Elev Updated Type
Crisp EMA, Cordele, GA 76.9 °F 78 °F 75 °F 92% SE  at  2.0 mph 0.00 in / hr 315 ft 1:22 AM EDT Normal
Cobb, Cobb, GA 77.7 °F 80 °F 75 °F 90% West  at  0.0 mph 0.00 in / hr 285 ft 1:16 AM EDT Normal
APRSWXNET Ashburn GA, Ashburn, GA 76 °F 75 °F 75 °F 96% SSW  at  0 mph 0.00 in / hr 452 ft 12:33 AM EDT MADIS

Show More Stations Show Fewer Stations